PWSweather.com
Personal Weather Stations
Station Observations
GEELONGWX1
Bell Post Hill, GeelongAU

Bell Post HillGeelongAU

Lat: -38.101, Lon: 144.326

Elevation: 204

Station Type: Davis Vantage Pro2

http://www.geelongweather.com

High Low Average
Temperature 94.7°F34.8°C 63.8°F17.7°C 76.1°F24.5°C
Dew Point 68.6°F20.3°C 58.7°F14.8°C 63.2°F17.3°C
Winds 10.4 mph 16.7 kmh Calm Calm 2.0 mph E3.2 kmh E
Wind Gusts 15.0 mph24.1 kmh -- 4.0 mph6.4 kmh
Humidity 89% 40% 67%
Pressure 30.02 in1016.6 mb 29.87 in1011.5 mb -
Precipitation 0.00 in0.0 mm - -
Hour Temp Dew Point Humidity Winds Wind Gusts Pressure Precip Precip Rate Daily Precip Total
12:00 AM 65.9°F18.8°C 59.6°F15.3°C 80% 2.3 mph ENE3.7 kmh ENE 8.1 mph13.0 kmh 30.02 in1016.6 mb - 0.00 in0.0 mm 0.00 in0.0 mm
12:10 AM 65.7°F18.7°C 59.7°F15.4°C 81% 3.5 mph ENE5.6 kmh ENE 8.1 mph13.0 kmh 30.01 in1016.3 mb - 0.00 in0.0 mm 0.00 in0.0 mm
12:20 AM 65.6°F18.7°C 59.6°F15.3°C 81% Calm Calm -- 30.01 in1016.3 mb - 0.00 in0.0 mm 0.00 in0.0 mm
12:30 AM 65.4°F18.6°C 59.8°F15.4°C 82% Calm Calm -- 30.00 in1015.9 mb - 0.00 in0.0 mm 0.00 in0.0 mm
12:40 AM 65.3°F18.5°C 59.7°F15.4°C 82% Calm Calm -- 30.00 in1015.9 mb - 0.00 in0.0 mm 0.00 in0.0 mm
12:50 AM 65.1°F18.4°C 59.5°F15.3°C 82% Calm Calm -- 30.00 in1015.9 mb - 0.00 in0.0 mm 0.00 in0.0 mm
01:00 AM 65.0°F18.3°C 59.4°F15.2°C 82% Calm Calm -- 29.99 in1015.6 mb - 0.00 in0.0 mm 0.00 in0.0 mm
01:10 AM 64.8°F18.2°C 59.2°F15.1°C 82% Calm Calm -- 30.00 in1015.9 mb - 0.00 in0.0 mm 0.00 in0.0 mm
01:20 AM 64.7°F18.2°C 59.4°F15.2°C 83% Calm Calm -- 29.99 in1015.6 mb - 0.00 in0.0 mm 0.00 in0.0 mm
01:30 AM 64.6°F18.1°C 59.3°F15.2°C 83% Calm Calm -- 29.99 in1015.6 mb - 0.00 in0.0 mm 0.00 in0.0 mm
01:40 AM 64.5°F18.1°C 59.2°F15.1°C 83% Calm Calm -- 29.98 in1015.2 mb - 0.00 in0.0 mm 0.00 in0.0 mm
01:50 AM 64.3°F17.9°C 59.4°F15.2°C 84% Calm Calm -- 29.97 in1014.9 mb - 0.00 in0.0 mm 0.00 in0.0 mm
02:00 AM 64.2°F17.9°C 59.3°F15.2°C 84% Calm Calm -- 29.97 in1014.9 mb - 0.00 in0.0 mm 0.00 in0.0 mm
02:10 AM 64.0°F17.8°C 59.1°F15.1°C 84% Calm Calm -- 29.96 in1014.6 mb - 0.00 in0.0 mm 0.00 in0.0 mm
02:20 AM 63.9°F17.7°C 59.3°F15.2°C 85% Calm Calm -- 29.95 in1014.2 mb - 0.00 in0.0 mm 0.00 in0.0 mm
02:30 AM 63.8°F17.7°C 59.2°F15.1°C 85% Calm Calm -- 29.96 in1014.6 mb - 0.00 in0.0 mm 0.00 in0.0 mm
02:40 AM 63.8°F17.7°C 59.2°F15.1°C 85% Calm Calm -- 29.95 in1014.2 mb - 0.00 in0.0 mm 0.00 in0.0 mm
02:50 AM 63.8°F17.7°C 59.5°F15.3°C 86% Calm Calm -- 29.95 in1014.2 mb - 0.00 in0.0 mm 0.00 in0.0 mm
03:00 AM 63.9°F17.7°C 59.6°F15.3°C 86% Calm Calm -- 29.95 in1014.2 mb - 0.00 in0.0 mm 0.00 in0.0 mm
03:10 AM 64.0°F17.8°C 60.1°F15.6°C 87% Calm Calm -- 29.95 in1014.2 mb - 0.00 in0.0 mm 0.00 in0.0 mm
03:20 AM 64.2°F17.9°C 60.2°F15.7°C 87% Calm Calm -- 29.95 in1014.2 mb - 0.00 in0.0 mm 0.00 in0.0 mm
03:30 AM 64.3°F17.9°C 60.3°F15.7°C 87% Calm Calm -- 29.95 in1014.2 mb - 0.00 in0.0 mm 0.00 in0.0 mm
03:40 AM 64.5°F18.1°C 60.5°F15.8°C 87% Calm Calm -- 29.95 in1014.2 mb - 0.00 in0.0 mm 0.00 in0.0 mm
03:50 AM 64.5°F18.1°C 60.9°F16.1°C 88% Calm Calm -- 29.95 in1014.2 mb - 0.00 in0.0 mm 0.00 in0.0 mm
04:00 AM 64.6°F18.1°C 61.0°F16.1°C 88% Calm Calm -- 29.95 in1014.2 mb - 0.00 in0.0 mm 0.00 in0.0 mm
04:10 AM 64.7°F18.2°C 61.1°F16.2°C 88% Calm Calm -- 29.95 in1014.2 mb - 0.00 in0.0 mm 0.00 in0.0 mm
04:20 AM 64.8°F18.2°C 61.2°F16.2°C 88% Calm Calm -- 29.96 in1014.6 mb - 0.00 in0.0 mm 0.00 in0.0 mm
04:30 AM 64.9°F18.3°C 61.3°F16.3°C 88% Calm Calm -- 29.96 in1014.6 mb - 0.00 in0.0 mm 0.00 in0.0 mm
04:40 AM 65.0°F18.3°C 61.3°F16.3°C 88% Calm Calm -- 29.95 in1014.2 mb - 0.00 in0.0 mm 0.00 in0.0 mm
04:50 AM 65.0°F18.3°C 61.4°F16.3°C 88% Calm Calm -- 29.95 in1014.2 mb - 0.00 in0.0 mm 0.00 in0.0 mm
05:00 AM 65.0°F18.3°C 61.4°F16.3°C 88% Calm Calm -- 29.96 in1014.6 mb - 0.00 in0.0 mm 0.00 in0.0 mm
05:10 AM 65.0°F18.3°C 61.1°F16.2°C 87% Calm Calm -- 29.96 in1014.6 mb - 0.00 in0.0 mm 0.00 in0.0 mm
05:20 AM 65.1°F18.4°C 61.1°F16.2°C 87% Calm Calm -- 29.97 in1014.9 mb - 0.00 in0.0 mm 0.00 in0.0 mm
05:30 AM 65.0°F18.3°C 61.0°F16.1°C 87% Calm Calm -- 29.97 in1014.9 mb - 0.00 in0.0 mm 0.00 in0.0 mm
05:40 AM 64.9°F18.3°C 60.9°F16.1°C 87% Calm Calm -- 29.97 in1014.9 mb - 0.00 in0.0 mm 0.00 in0.0 mm
05:50 AM 64.7°F18.2°C 60.7°F15.9°C 87% Calm Calm 1.2 mph1.9 kmh 29.98 in1015.2 mb - 0.00 in0.0 mm 0.00 in0.0 mm
06:00 AM 64.8°F18.2°C 60.8°F16.0°C 87% 1.2 mph S1.9 kmh S 2.3 mph3.7 kmh 29.98 in1015.2 mb - 0.00 in0.0 mm 0.00 in0.0 mm
06:10 AM 65.1°F18.4°C 61.4°F16.3°C 88% 1.2 mph S1.9 kmh S 3.5 mph5.6 kmh 29.98 in1015.2 mb - 0.00 in0.0 mm 0.00 in0.0 mm
06:20 AM 65.5°F18.6°C 61.8°F16.6°C 88% 1.2 mph S1.9 kmh S 2.3 mph3.7 kmh 29.98 in1015.2 mb - 0.00 in0.0 mm 0.00 in0.0 mm
06:30 AM 66.1°F18.9°C 62.4°F16.9°C 88% 1.2 mph S1.9 kmh S 1.2 mph1.9 kmh 29.98 in1015.2 mb - 0.00 in0.0 mm 0.00 in0.0 mm
06:40 AM 67.0°F19.4°C 63.7°F17.6°C 89% 2.3 mph S3.7 kmh S 3.5 mph5.6 kmh 29.99 in1015.6 mb - 0.00 in0.0 mm 0.00 in0.0 mm
06:50 AM 67.8°F19.9°C 64.2°F17.9°C 88% 4.6 mph S7.4 kmh S 5.8 mph9.3 kmh 29.99 in1015.6 mb - 0.00 in0.0 mm 0.00 in0.0 mm
07:00 AM 68.6°F20.3°C 64.5°F18.1°C 87% 4.6 mph S7.4 kmh S 6.9 mph11.1 kmh 29.99 in1015.6 mb - 0.00 in0.0 mm 0.00 in0.0 mm
07:10 AM 69.2°F20.7°C 64.5°F18.1°C 85% 1.2 mph S1.9 kmh S 2.3 mph3.7 kmh 29.98 in1015.2 mb - 0.00 in0.0 mm 0.00 in0.0 mm
07:20 AM 70.4°F21.3°C 65.6°F18.7°C 85% 1.2 mph SW1.9 kmh SW 3.5 mph5.6 kmh 29.98 in1015.2 mb - 0.00 in0.0 mm 0.00 in0.0 mm
07:30 AM 71.5°F21.9°C 65.7°F18.7°C 82% 1.2 mph SW1.9 kmh SW 3.5 mph5.6 kmh 29.98 in1015.2 mb - 0.00 in0.0 mm 0.00 in0.0 mm
07:40 AM 72.6°F22.6°C 66.0°F18.9°C 80% Calm Calm -- 29.98 in1015.2 mb - 0.00 in0.0 mm 0.00 in0.0 mm
07:50 AM 74.2°F23.4°C 65.4°F18.6°C 74% 1.2 mph E1.9 kmh E 3.5 mph5.6 kmh 29.98 in1015.2 mb - 0.00 in0.0 mm 0.00 in0.0 mm
08:00 AM 76.0°F24.4°C 64.7°F18.2°C 68% 2.3 mph N3.7 kmh N 3.5 mph5.6 kmh 29.98 in1015.2 mb - 0.00 in0.0 mm 0.00 in0.0 mm
08:10 AM 77.1°F25.1°C 65.7°F18.7°C 68% 1.2 mph NE1.9 kmh NE 3.5 mph5.6 kmh 29.98 in1015.2 mb - 0.00 in0.0 mm 0.00 in0.0 mm
08:20 AM 78.0°F25.6°C 65.7°F18.7°C 66% 1.2 mph NE1.9 kmh NE 3.5 mph5.6 kmh 29.97 in1014.9 mb - 0.00 in0.0 mm 0.00 in0.0 mm
08:30 AM 79.3°F26.3°C 65.1°F18.4°C 62% 1.2 mph N1.9 kmh N 2.3 mph3.7 kmh 29.97 in1014.9 mb - 0.00 in0.0 mm 0.00 in0.0 mm
08:40 AM 80.4°F26.9°C 65.8°F18.8°C 61% Calm Calm -- 29.97 in1014.9 mb - 0.00 in0.0 mm 0.00 in0.0 mm
08:50 AM 81.8°F27.7°C 65.1°F18.4°C 57% Calm Calm 1.2 mph1.9 kmh 29.97 in1014.9 mb - 0.00 in0.0 mm 0.00 in0.0 mm
09:00 AM 83.0°F28.3°C 64.6°F18.1°C 54% 1.2 mph N1.9 kmh N 2.3 mph3.7 kmh 29.96 in1014.6 mb - 0.00 in0.0 mm 0.00 in0.0 mm
09:10 AM 84.1°F28.9°C 65.1°F18.4°C 53% Calm Calm 3.5 mph5.6 kmh 29.96 in1014.6 mb - 0.00 in0.0 mm 0.00 in0.0 mm
09:20 AM 85.2°F29.6°C 65.6°F18.7°C 52% Calm Calm -- 29.96 in1014.6 mb - 0.00 in0.0 mm 0.00 in0.0 mm
09:30 AM 86.3°F30.2°C 67.1°F19.5°C 53% Calm Calm -- 29.95 in1014.2 mb - 0.00 in0.0 mm 0.00 in0.0 mm
09:40 AM 87.1°F30.6°C 66.2°F19.0°C 50% 2.3 mph N3.7 kmh N 3.5 mph5.6 kmh 29.95 in1014.2 mb - 0.00 in0.0 mm 0.00 in0.0 mm
09:50 AM 87.0°F30.6°C 66.1°F18.9°C 50% 2.3 mph E3.7 kmh E 3.5 mph5.6 kmh 29.95 in1014.2 mb - 0.00 in0.0 mm 0.00 in0.0 mm
10:00 AM 87.3°F30.7°C 66.9°F19.4°C 51% 2.3 mph N3.7 kmh N 6.9 mph11.1 kmh 29.94 in1013.9 mb - 0.00 in0.0 mm 0.00 in0.0 mm
10:10 AM 87.6°F30.9°C 65.5°F18.6°C 48% Calm Calm 3.5 mph5.6 kmh 29.94 in1013.9 mb - 0.00 in0.0 mm 0.00 in0.0 mm
10:20 AM 87.4°F30.8°C 65.9°F18.8°C 49% 2.3 mph N3.7 kmh N 6.9 mph11.1 kmh 29.94 in1013.9 mb - 0.00 in0.0 mm 0.00 in0.0 mm
10:30 AM 87.7°F30.9°C 65.6°F18.7°C 48% 3.5 mph N5.6 kmh N 4.6 mph7.4 kmh 29.93 in1013.5 mb - 0.00 in0.0 mm 0.00 in0.0 mm
10:40 AM 88.1°F31.2°C 65.9°F18.8°C 48% 1.2 mph E1.9 kmh E 2.3 mph3.7 kmh 29.93 in1013.5 mb - 0.00 in0.0 mm 0.00 in0.0 mm
10:50 AM 88.8°F31.6°C 66.5°F19.2°C 48% Calm Calm -- 29.93 in1013.5 mb - 0.00 in0.0 mm 0.00 in0.0 mm
11:00 AM 89.1°F31.7°C 66.8°F19.3°C 48% 3.5 mph NNE5.6 kmh NNE 5.8 mph9.3 kmh 29.92 in1013.2 mb - 0.00 in0.0 mm 0.00 in0.0 mm
11:10 AM 89.0°F31.7°C 66.2°F19.0°C 47% 2.3 mph NE3.7 kmh NE 2.3 mph3.7 kmh 29.92 in1013.2 mb - 0.00 in0.0 mm 0.00 in0.0 mm
11:20 AM 89.2°F31.8°C 66.3°F19.1°C 47% 3.5 mph NE5.6 kmh NE 3.5 mph5.6 kmh 29.92 in1013.2 mb - 0.00 in0.0 mm 0.00 in0.0 mm
11:30 AM 89.1°F31.7°C 65.6°F18.7°C 46% 2.3 mph NE3.7 kmh NE 5.8 mph9.3 kmh 29.91 in1012.9 mb - 0.00 in0.0 mm 0.00 in0.0 mm
11:40 AM 89.5°F31.9°C 66.6°F19.2°C 47% 4.6 mph NNE7.4 kmh NNE 6.9 mph11.1 kmh 29.91 in1012.9 mb - 0.00 in0.0 mm 0.00 in0.0 mm
11:50 AM 89.6°F32.0°C 66.7°F19.3°C 47% 3.5 mph NE5.6 kmh NE 5.8 mph9.3 kmh 29.90 in1012.5 mb - 0.00 in0.0 mm 0.00 in0.0 mm
12:00 PM 89.9°F32.2°C 65.1°F18.4°C 44% 2.3 mph NE3.7 kmh NE 5.8 mph9.3 kmh 29.90 in1012.5 mb - 0.00 in0.0 mm 0.00 in0.0 mm
12:10 PM 90.7°F32.6°C 65.8°F18.8°C 44% 2.3 mph N3.7 kmh N 3.5 mph5.6 kmh 29.89 in1012.2 mb - 0.00 in0.0 mm 0.00 in0.0 mm
12:20 PM 91.9°F33.3°C 66.2°F19.0°C 43% 3.5 mph NE5.6 kmh NE 5.8 mph9.3 kmh 29.88 in1011.9 mb - 0.00 in0.0 mm 0.00 in0.0 mm
12:30 PM 92.5°F33.6°C 65.4°F18.6°C 41% 4.6 mph ENE7.4 kmh ENE 6.9 mph11.1 kmh 29.88 in1011.9 mb - 0.00 in0.0 mm 0.00 in0.0 mm
12:40 PM 92.8°F33.8°C 66.3°F19.1°C 42% 4.6 mph NE7.4 kmh NE 9.2 mph14.8 kmh 29.88 in1011.9 mb - 0.00 in0.0 mm 0.00 in0.0 mm
12:50 PM 93.1°F33.9°C 65.9°F18.8°C 41% 3.5 mph NE5.6 kmh NE 6.9 mph11.1 kmh 29.88 in1011.9 mb - 0.00 in0.0 mm 0.00 in0.0 mm
01:00 PM 92.8°F33.8°C 65.6°F18.7°C 41% 3.5 mph NE5.6 kmh NE 5.8 mph9.3 kmh 29.88 in1011.9 mb - 0.00 in0.0 mm 0.00 in0.0 mm
01:10 PM 93.0°F33.9°C 65.8°F18.8°C 41% 3.5 mph ENE5.6 kmh ENE 8.1 mph13.0 kmh 29.88 in1011.9 mb - 0.00 in0.0 mm 0.00 in0.0 mm
01:20 PM 93.6°F34.2°C 65.7°F18.7°C 40% 6.9 mph E11.1 kmh E 9.2 mph14.8 kmh 29.88 in1011.9 mb - 0.00 in0.0 mm 0.00 in0.0 mm
01:30 PM 93.9°F34.4°C 65.9°F18.8°C 40% 5.8 mph NE9.3 kmh NE 8.1 mph13.0 kmh 29.87 in1011.5 mb - 0.00 in0.0 mm 0.00 in0.0 mm
01:40 PM 94.1°F34.5°C 66.8°F19.3°C 41% 5.8 mph NE9.3 kmh NE 9.2 mph14.8 kmh 29.87 in1011.5 mb - 0.00 in0.0 mm 0.00 in0.0 mm
01:50 PM 94.4°F34.7°C 67.8°F19.9°C 42% 9.2 mph ENE14.8 kmh ENE 12.7 mph20.4 kmh 29.87 in1011.5 mb - 0.00 in0.0 mm 0.00 in0.0 mm
02:00 PM 94.7°F34.8°C 68.0°F20.0°C 42% 6.9 mph E11.1 kmh E 12.7 mph20.4 kmh 29.87 in1011.5 mb - 0.00 in0.0 mm 0.00 in0.0 mm
02:10 PM 94.4°F34.7°C 67.8°F19.9°C 42% 8.1 mph E13.0 kmh E 11.5 mph18.5 kmh 29.87 in1011.5 mb - 0.00 in0.0 mm 0.00 in0.0 mm
02:20 PM 93.8°F34.3°C 68.6°F20.3°C 44% 8.1 mph E13.0 kmh E 10.4 mph16.7 kmh 29.88 in1011.9 mb - 0.00 in0.0 mm 0.00 in0.0 mm
02:30 PM 92.5°F33.6°C 67.4°F19.7°C 44% 10.4 mph E16.7 kmh E 12.7 mph20.4 kmh 29.88 in1011.9 mb - 0.00 in0.0 mm 0.00 in0.0 mm
02:40 PM 90.7°F32.6°C 67.1°F19.5°C 46% 9.2 mph ESE14.8 kmh ESE 11.5 mph18.5 kmh 29.88 in1011.9 mb - 0.00 in0.0 mm 0.00 in0.0 mm
02:50 PM 89.3°F31.8°C 67.1°F19.5°C 48% 4.6 mph ENE7.4 kmh ENE 8.1 mph13.0 kmh 29.88 in1011.9 mb - 0.00 in0.0 mm 0.00 in0.0 mm
03:00 PM 88.8°F31.6°C 66.6°F19.2°C 48% 6.9 mph ENE11.1 kmh ENE 10.4 mph16.7 kmh 29.87 in1011.5 mb - 0.00 in0.0 mm 0.00 in0.0 mm
03:10 PM 88.4°F31.3°C 66.8°F19.3°C 49% 5.8 mph E9.3 kmh E 11.5 mph18.5 kmh 29.87 in1011.5 mb - 0.00 in0.0 mm 0.00 in0.0 mm
03:20 PM 87.5°F30.8°C 66.0°F18.9°C 49% 8.1 mph E13.0 kmh E 11.5 mph18.5 kmh 29.88 in1011.9 mb - 0.00 in0.0 mm 0.00 in0.0 mm
03:30 PM 86.8°F30.4°C 66.0°F18.9°C 50% 5.8 mph E9.3 kmh E 11.5 mph18.5 kmh 29.88 in1011.9 mb - 0.00 in0.0 mm 0.00 in0.0 mm
03:40 PM 86.3°F30.2°C 65.5°F18.6°C 50% 4.6 mph E7.4 kmh E 9.2 mph14.8 kmh 29.88 in1011.9 mb - 0.00 in0.0 mm 0.00 in0.0 mm
03:50 PM 86.2°F30.1°C 65.9°F18.8°C 51% 8.1 mph E13.0 kmh E 13.8 mph22.2 kmh 29.88 in1011.9 mb - 0.00 in0.0 mm 0.00 in0.0 mm
04:00 PM 85.8°F29.9°C 66.2°F19.0°C 52% 6.9 mph NE11.1 kmh NE 10.4 mph16.7 kmh 29.88 in1011.9 mb - 0.00 in0.0 mm 0.00 in0.0 mm
04:10 PM 85.4°F29.7°C 65.8°F18.8°C 52% 8.1 mph E13.0 kmh E 11.5 mph18.5 kmh 29.88 in1011.9 mb - 0.00 in0.0 mm 0.00 in0.0 mm
04:20 PM 85.0°F29.4°C 66.0°F18.9°C 53% 6.9 mph E11.1 kmh E 11.5 mph18.5 kmh 29.88 in1011.9 mb - 0.00 in0.0 mm 0.00 in0.0 mm
04:30 PM 84.5°F29.2°C 66.1°F18.9°C 54% 4.6 mph ESE7.4 kmh ESE 8.1 mph13.0 kmh 29.88 in1011.9 mb - 0.00 in0.0 mm 0.00 in0.0 mm
04:40 PM 84.1°F28.9°C 66.2°F19.0°C 55% 5.8 mph E9.3 kmh E 8.1 mph13.0 kmh 29.88 in1011.9 mb - 0.00 in0.0 mm 0.00 in0.0 mm
04:50 PM 83.8°F28.8°C 65.9°F18.8°C 55% 9.2 mph E14.8 kmh E 15.0 mph24.1 kmh 29.88 in1011.9 mb - 0.00 in0.0 mm 0.00 in0.0 mm
05:00 PM 83.3°F28.5°C 66.0°F18.9°C 56% 4.6 mph ENE7.4 kmh ENE 5.8 mph9.3 kmh 29.87 in1011.5 mb - 0.00 in0.0 mm 0.00 in0.0 mm
05:10 PM 82.8°F28.2°C 65.5°F18.6°C 56% 6.9 mph E11.1 kmh E 5.8 mph9.3 kmh 29.87 in1011.5 mb - 0.00 in0.0 mm 0.00 in0.0 mm
05:20 PM 82.1°F27.8°C 64.9°F18.3°C 56% 6.9 mph E11.1 kmh E 9.2 mph14.8 kmh 29.88 in1011.9 mb - 0.00 in0.0 mm 0.00 in0.0 mm
05:30 PM 81.3°F27.4°C 64.6°F18.1°C 57% 9.2 mph E14.8 kmh E 12.7 mph20.4 kmh 29.88 in1011.9 mb - 0.00 in0.0 mm 0.00 in0.0 mm
05:40 PM 80.1°F26.7°C 64.5°F18.1°C 59% 6.9 mph ENE11.1 kmh ENE 8.1 mph13.0 kmh 29.88 in1011.9 mb - 0.00 in0.0 mm 0.00 in0.0 mm
05:50 PM 79.5°F26.4°C 64.4°F18.0°C 60% 6.9 mph ESE11.1 kmh ESE 11.5 mph18.5 kmh 29.89 in1012.2 mb - 0.00 in0.0 mm 0.00 in0.0 mm
06:00 PM 78.6°F25.9°C 64.0°F17.8°C 61% 6.9 mph E11.1 kmh E 13.8 mph22.2 kmh 29.89 in1012.2 mb - 0.00 in0.0 mm 0.00 in0.0 mm
06:10 PM 78.0°F25.6°C 63.9°F17.7°C 62% 4.6 mph ENE7.4 kmh ENE 4.6 mph7.4 kmh 29.89 in1012.2 mb - 0.00 in0.0 mm 0.00 in0.0 mm
06:20 PM 77.5°F25.3°C 63.5°F17.5°C 62% 5.8 mph ESE9.3 kmh ESE 11.5 mph18.5 kmh 29.90 in1012.5 mb - 0.00 in0.0 mm 0.00 in0.0 mm
06:30 PM 76.8°F24.9°C 63.2°F17.3°C 63% 4.6 mph E7.4 kmh E 11.5 mph18.5 kmh 29.91 in1012.9 mb - 0.00 in0.0 mm 0.00 in0.0 mm
06:40 PM 76.4°F24.7°C 63.3°F17.4°C 64% Calm Calm -- 29.91 in1012.9 mb - 0.00 in0.0 mm 0.00 in0.0 mm
06:50 PM 75.7°F24.3°C 63.1°F17.3°C 65% 5.8 mph E9.3 kmh E 10.4 mph16.7 kmh 29.91 in1012.9 mb - 0.00 in0.0 mm 0.00 in0.0 mm
07:00 PM 75.2°F24.0°C 63.1°F17.3°C 66% 5.8 mph E9.3 kmh E 12.7 mph20.4 kmh 29.91 in1012.9 mb - 0.00 in0.0 mm 0.00 in0.0 mm
07:10 PM 74.8°F23.8°C 63.1°F17.3°C 67% 6.9 mph E11.1 kmh E 6.9 mph11.1 kmh 29.92 in1013.2 mb - 0.00 in0.0 mm 0.00 in0.0 mm
07:20 PM 74.4°F23.6°C 62.7°F17.1°C 67% 3.5 mph E5.6 kmh E 5.8 mph9.3 kmh 29.93 in1013.5 mb - 0.00 in0.0 mm 0.00 in0.0 mm
07:30 PM 74.0°F23.3°C 62.8°F17.1°C 68% 2.3 mph ENE3.7 kmh ENE 2.3 mph3.7 kmh 29.93 in1013.5 mb - 0.00 in0.0 mm 0.00 in0.0 mm
07:40 PM 73.8°F23.2°C 62.6°F17.0°C 68% 2.3 mph E3.7 kmh E 3.5 mph5.6 kmh 29.93 in1013.5 mb - 0.00 in0.0 mm 0.00 in0.0 mm
07:50 PM 73.4°F23.0°C 62.6°F17.0°C 69% 1.2 mph E1.9 kmh E 2.3 mph3.7 kmh 29.93 in1013.5 mb - 0.00 in0.0 mm 0.00 in0.0 mm
08:00 PM 73.1°F22.8°C 62.3°F16.8°C 69% 1.2 mph ESE1.9 kmh ESE 1.2 mph1.9 kmh 29.93 in1013.5 mb - 0.00 in0.0 mm 0.00 in0.0 mm
08:10 PM 72.8°F22.7°C 62.0°F16.7°C 69% Calm Calm 1.2 mph1.9 kmh 29.93 in1013.5 mb - 0.00 in0.0 mm 0.00 in0.0 mm
08:20 PM 72.4°F22.4°C 61.7°F16.5°C 69% Calm Calm 2.3 mph3.7 kmh 29.93 in1013.5 mb - 0.00 in0.0 mm 0.00 in0.0 mm
08:30 PM 72.1°F22.3°C 61.8°F16.6°C 70% Calm Calm 1.2 mph1.9 kmh 29.94 in1013.9 mb - 0.00 in0.0 mm 0.00 in0.0 mm
08:40 PM 71.7°F22.1°C 61.4°F16.3°C 70% Calm Calm 2.3 mph3.7 kmh 29.94 in1013.9 mb - 0.00 in0.0 mm 0.00 in0.0 mm
08:50 PM 71.4°F21.9°C 61.5°F16.4°C 71% Calm Calm 2.3 mph3.7 kmh 29.94 in1013.9 mb - 0.00 in0.0 mm 0.00 in0.0 mm
09:00 PM 71.0°F21.7°C 61.1°F16.2°C 71% Calm Calm 2.3 mph3.7 kmh 29.94 in1013.9 mb - 0.00 in0.0 mm 0.00 in0.0 mm
09:10 PM 70.7°F21.5°C 60.8°F16.0°C 71% Calm Calm 1.2 mph1.9 kmh 29.94 in1013.9 mb - 0.00 in0.0 mm 0.00 in0.0 mm
09:20 PM 70.5°F21.4°C 61.0°F16.1°C 72% Calm Calm 1.2 mph1.9 kmh 29.94 in1013.9 mb - 0.00 in0.0 mm 0.00 in0.0 mm
09:30 PM 70.1°F21.2°C 60.7°F15.9°C 72% Calm Calm -- 29.94 in1013.9 mb - 0.00 in0.0 mm 0.00 in0.0 mm
09:40 PM 69.7°F20.9°C 60.3°F15.7°C 72% Calm Calm -- 29.94 in1013.9 mb - 0.00 in0.0 mm 0.00 in0.0 mm
09:50 PM 69.3°F20.7°C 59.9°F15.5°C 72% Calm Calm -- 29.94 in1013.9 mb - 0.00 in0.0 mm 0.00 in0.0 mm
10:00 PM 69.0°F20.6°C 59.6°F15.3°C 72% Calm Calm -- 29.94 in1013.9 mb - 0.00 in0.0 mm 0.00 in0.0 mm
10:10 PM 68.7°F20.4°C 59.7°F15.4°C 73% Calm Calm 1.2 mph1.9 kmh 29.93 in1013.5 mb - 0.00 in0.0 mm 0.00 in0.0 mm
10:20 PM 68.3°F20.2°C 58.9°F14.9°C 72% 1.2 mph SE1.9 kmh SE 2.3 mph3.7 kmh 29.93 in1013.5 mb - 0.00 in0.0 mm 0.00 in0.0 mm
10:30 PM 68.0°F20.0°C 59.0°F15.0°C 73% 1.2 mph S1.9 kmh S 2.3 mph3.7 kmh 29.93 in1013.5 mb - 0.00 in0.0 mm 0.00 in0.0 mm
10:40 PM 67.6°F19.8°C 58.7°F14.8°C 73% 1.2 mph S1.9 kmh S 2.3 mph3.7 kmh 29.93 in1013.5 mb - 0.00 in0.0 mm 0.00 in0.0 mm
10:50 PM 67.3°F19.6°C 58.7°F14.8°C 74% 1.2 mph S1.9 kmh S 3.5 mph5.6 kmh 29.92 in1013.2 mb - 0.00 in0.0 mm 0.00 in0.0 mm
11:00 PM 67.1°F19.5°C 58.9°F14.9°C 75% 1.2 mph SSE1.9 kmh SSE 2.3 mph3.7 kmh 29.92 in1013.2 mb - 0.00 in0.0 mm 0.00 in0.0 mm
11:10 PM 66.9°F19.4°C 59.1°F15.1°C 76% Calm Calm 1.2 mph1.9 kmh 29.92 in1013.2 mb - 0.00 in0.0 mm 0.00 in0.0 mm
11:20 PM 66.5°F19.2°C 59.1°F15.1°C 77% 1.2 mph S1.9 kmh S 1.2 mph1.9 kmh 29.92 in1013.2 mb - 0.00 in0.0 mm 0.00 in0.0 mm
11:30 PM 66.2°F19.0°C 59.1°F15.1°C 78% 1.2 mph S1.9 kmh S 1.2 mph1.9 kmh 29.92 in1013.2 mb - 0.00 in0.0 mm 0.00 in0.0 mm
11:40 PM 65.8°F18.8°C 58.8°F14.9°C 78% 1.2 mph SSE1.9 kmh SSE 2.3 mph3.7 kmh 29.92 in1013.2 mb - 0.00 in0.0 mm 0.00 in0.0 mm
11:50 PM 65.5°F18.6°C 58.8°F14.9°C 79% 1.2 mph SSE1.9 kmh SSE 2.3 mph3.7 kmh 29.91 in1012.9 mb - 0.00 in0.0 mm 0.00 in0.0 mm